sensor_id;sensor_type;location;lat;lon;timestamp;temperature;humidity
12971;DHT22;6550;48.650;8.774;2023-04-21T00:01:03;7.10;99.90
12971;DHT22;6550;48.650;8.774;2023-04-21T00:03:34;7.10;99.90
12971;DHT22;6550;48.650;8.774;2023-04-21T00:06:07;7.10;99.90
12971;DHT22;6550;48.650;8.774;2023-04-21T00:08:35;7.30;99.90
12971;DHT22;6550;48.650;8.774;2023-04-21T00:11:06;7.10;99.90
12971;DHT22;6550;48.650;8.774;2023-04-21T00:13:34;7.00;99.90
12971;DHT22;6550;48.650;8.774;2023-04-21T00:16:02;7.10;99.90
12971;DHT22;6550;48.650;8.774;2023-04-21T00:18:29;7.00;99.90
12971;DHT22;6550;48.650;8.774;2023-04-21T00:20:56;7.00;99.90
12971;DHT22;6550;48.650;8.774;2023-04-21T00:23:22;7.00;99.90
12971;DHT22;6550;48.650;8.774;2023-04-21T00:25:49;7.00;99.90
12971;DHT22;6550;48.650;8.774;2023-04-21T00:28:18;7.00;99.90
12971;DHT22;6550;48.650;8.774;2023-04-21T00:30:45;6.90;99.90
12971;DHT22;6550;48.650;8.774;2023-04-21T00:33:12;6.90;99.90
12971;DHT22;6550;48.650;8.774;2023-04-21T00:35:39;6.90;99.90
12971;DHT22;6550;48.650;8.774;2023-04-21T00:38:05;6.80;99.90
12971;DHT22;6550;48.650;8.774;2023-04-21T00:40:32;6.80;99.90
12971;DHT22;6550;48.650;8.774;2023-04-21T00:43:05;6.80;99.90
12971;DHT22;6550;48.650;8.774;2023-04-21T00:45:32;6.80;99.90
12971;DHT22;6550;48.650;8.774;2023-04-21T00:47:59;6.70;99.90
12971;DHT22;6550;48.650;8.774;2023-04-21T00:50:26;6.70;99.90
12971;DHT22;6550;48.650;8.774;2023-04-21T00:52:53;6.80;99.90
12971;DHT22;6550;48.650;8.774;2023-04-21T00:55:20;6.80;99.90
12971;DHT22;6550;48.650;8.774;2023-04-21T00:57:48;6.80;99.90
12971;DHT22;6550;48.650;8.774;2023-04-21T01:00:17;6.90;99.90
12971;DHT22;6550;48.650;8.774;2023-04-21T01:02:44;6.80;99.90
12971;DHT22;6550;48.650;8.774;2023-04-21T01:05:13;6.90;99.90
12971;DHT22;6550;48.650;8.774;2023-04-21T01:07:41;6.90;99.90
12971;DHT22;6550;48.650;8.774;2023-04-21T01:10:09;6.90;99.90
12971;DHT22;6550;48.650;8.774;2023-04-21T01:12:54;6.90;99.90
12971;DHT22;6550;48.650;8.774;2023-04-21T01:15:21;6.90;99.90
12971;DHT22;6550;48.650;8.774;2023-04-21T01:17:47;6.90;99.90
12971;DHT22;6550;48.650;8.774;2023-04-21T01:20:15;6.80;99.90
12971;DHT22;6550;48.650;8.774;2023-04-21T01:22:44;6.80;99.90
12971;DHT22;6550;48.650;8.774;2023-04-21T01:25:11;6.90;99.90
12971;DHT22;6550;48.650;8.774;2023-04-21T01:27:38;6.90;99.90
12971;DHT22;6550;48.650;8.774;2023-04-21T01:30:07;6.90;99.90
12971;DHT22;6550;48.650;8.774;2023-04-21T01:32:35;6.90;99.90
12971;DHT22;6550;48.650;8.774;2023-04-21T01:35:04;6.90;99.90
12971;DHT22;6550;48.650;8.774;2023-04-21T01:37:32;6.90;99.90
12971;DHT22;6550;48.650;8.774;2023-04-21T01:40:03;7.10;99.90
12971;DHT22;6550;48.650;8.774;2023-04-21T01:42:31;6.90;99.90
12971;DHT22;6550;48.650;8.774;2023-04-21T01:45:01;6.90;99.90
12971;DHT22;6550;48.650;8.774;2023-04-21T01:47:30;6.90;99.90
12971;DHT22;6550;48.650;8.774;2023-04-21T01:49:58;6.90;99.90
12971;DHT22;6550;48.650;8.774;2023-04-21T01:52:24;6.80;99.90
12971;DHT22;6550;48.650;8.774;2023-04-21T01:54:51;6.90;99.90
12971;DHT22;6550;48.650;8.774;2023-04-21T01:57:18;6.90;99.90
12971;DHT22;6550;48.650;8.774;2023-04-21T01:59:45;6.90;99.90
12971;DHT22;6550;48.650;8.774;2023-04-21T02:02:12;6.90;99.90
12971;DHT22;6550;48.650;8.774;2023-04-21T02:04:39;6.90;99.90
12971;DHT22;6550;48.650;8.774;2023-04-21T02:07:06;7.00;99.90
12971;DHT22;6550;48.650;8.774;2023-04-21T02:09:33;6.90;99.90
12971;DHT22;6550;48.650;8.774;2023-04-21T02:12:00;6.90;99.90
12971;DHT22;6550;48.650;8.774;2023-04-21T02:14:27;6.90;99.90
12971;DHT22;6550;48.650;8.774;2023-04-21T02:16:54;6.80;99.90
12971;DHT22;6550;48.650;8.774;2023-04-21T02:19:22;6.80;99.90
12971;DHT22;6550;48.650;8.774;2023-04-21T02:21:49;6.80;99.90
12971;DHT22;6550;48.650;8.774;2023-04-21T02:24:16;6.80;99.90
12971;DHT22;6550;48.650;8.774;2023-04-21T02:26:42;6.80;99.90
12971;DHT22;6550;48.650;8.774;2023-04-21T02:29:09;6.80;99.90
12971;DHT22;6550;48.650;8.774;2023-04-21T02:31:36;6.80;99.90
12971;DHT22;6550;48.650;8.774;2023-04-21T02:34:22;6.80;99.90
12971;DHT22;6550;48.650;8.774;2023-04-21T02:36:51;6.90;99.90
12971;DHT22;6550;48.650;8.774;2023-04-21T02:39:18;6.80;99.90
12971;DHT22;6550;48.650;8.774;2023-04-21T02:41:48;6.80;99.90
12971;DHT22;6550;48.650;8.774;2023-04-21T02:44:14;6.70;99.90
12971;DHT22;6550;48.650;8.774;2023-04-21T02:46:42;6.70;99.90
12971;DHT22;6550;48.650;8.774;2023-04-21T02:49:09;6.70;99.90
12971;DHT22;6550;48.650;8.774;2023-04-21T02:51:39;6.80;99.90
12971;DHT22;6550;48.650;8.774;2023-04-21T02:54:08;6.80;99.90
12971;DHT22;6550;48.650;8.774;2023-04-21T02:56:34;6.80;99.90
12971;DHT22;6550;48.650;8.774;2023-04-21T02:59:01;6.90;99.90
12971;DHT22;6550;48.650;8.774;2023-04-21T03:01:28;6.70;99.90
12971;DHT22;6550;48.650;8.774;2023-04-21T03:03:55;6.70;99.90
12971;DHT22;6550;48.650;8.774;2023-04-21T03:06:24;6.80;99.90
12971;DHT22;6550;48.650;8.774;2023-04-21T03:08:51;6.60;99.90
12971;DHT22;6550;48.650;8.774;2023-04-21T03:11:17;6.70;99.90
12971;DHT22;6550;48.650;8.774;2023-04-21T03:13:49;6.70;99.90
12971;DHT22;6550;48.650;8.774;2023-04-21T03:16:16;6.80;99.90
12971;DHT22;6550;48.650;8.774;2023-04-21T03:18:45;6.70;99.90
12971;DHT22;6550;48.650;8.774;2023-04-21T03:21:12;7.00;99.90
12971;DHT22;6550;48.650;8.774;2023-04-21T03:23:39;6.70;99.90
12971;DHT22;6550;48.650;8.774;2023-04-21T03:26:10;6.80;99.90
12971;DHT22;6550;48.650;8.774;2023-04-21T03:28:37;6.80;99.90
12971;DHT22;6550;48.650;8.774;2023-04-21T03:31:06;6.90;99.90
12971;DHT22;6550;48.650;8.774;2023-04-21T03:33:33;6.90;99.90
12971;DHT22;6550;48.650;8.774;2023-04-21T03:36:03;6.90;99.90
12971;DHT22;6550;48.650;8.774;2023-04-21T03:38:32;6.80;99.90
12971;DHT22;6550;48.650;8.774;2023-04-21T03:40:59;6.80;99.90
12971;DHT22;6550;48.650;8.774;2023-04-21T03:43:26;6.80;99.90
12971;DHT22;6550;48.650;8.774;2023-04-21T03:45:54;6.80;99.90
12971;DHT22;6550;48.650;8.774;2023-04-21T03:48:22;6.90;99.90
12971;DHT22;6550;48.650;8.774;2023-04-21T03:50:48;6.80;99.90
12971;DHT22;6550;48.650;8.774;2023-04-21T03:53:15;6.80;99.90
12971;DHT22;6550;48.650;8.774;2023-04-21T03:55:42;6.80;99.90
12971;DHT22;6550;48.650;8.774;2023-04-21T03:58:09;6.80;99.90
12971;DHT22;6550;48.650;8.774;2023-04-21T04:00:36;6.90;99.90
12971;DHT22;6550;48.650;8.774;2023-04-21T04:03:03;6.80;99.90
12971;DHT22;6550;48.650;8.774;2023-04-21T04:05:30;6.90;99.90
12971;DHT22;6550;48.650;8.774;2023-04-21T04:07:56;7.60;99.90
12971;DHT22;6550;48.650;8.774;2023-04-21T04:10:23;6.90;99.90
12971;DHT22;6550;48.650;8.774;2023-04-21T04:12:53;6.90;99.90
12971;DHT22;6550;48.650;8.774;2023-04-21T04:15:23;6.80;99.90
12971;DHT22;6550;48.650;8.774;2023-04-21T04:17:49;6.80;99.90
12971;DHT22;6550;48.650;8.774;2023-04-21T04:20:19;6.60;99.90
12971;DHT22;6550;48.650;8.774;2023-04-21T04:22:46;6.60;99.90
12971;DHT22;6550;48.650;8.774;2023-04-21T04:25:13;6.60;99.90
12971;DHT22;6550;48.650;8.774;2023-04-21T04:27:42;6.60;99.90
12971;DHT22;6550;48.650;8.774;2023-04-21T04:30:12;6.70;99.90
12971;DHT22;6550;48.650;8.774;2023-04-21T04:32:39;6.70;99.90
12971;DHT22;6550;48.650;8.774;2023-04-21T04:35:16;6.70;99.90
12971;DHT22;6550;48.650;8.774;2023-04-21T04:37:43;6.70;99.90
12971;DHT22;6550;48.650;8.774;2023-04-21T04:40:13;7.00;99.90
12971;DHT22;6550;48.650;8.774;2023-04-21T04:42:42;6.70;99.90
12971;DHT22;6550;48.650;8.774;2023-04-21T04:45:11;6.70;99.90
12971;DHT22;6550;48.650;8.774;2023-04-21T04:47:39;6.70;99.90
12971;DHT22;6550;48.650;8.774;2023-04-21T04:50:06;6.80;99.90
12971;DHT22;6550;48.650;8.774;2023-04-21T04:52:33;6.80;99.90
12971;DHT22;6550;48.650;8.774;2023-04-21T04:55:00;6.80;99.90
12971;DHT22;6550;48.650;8.774;2023-04-21T04:57:27;6.90;99.90
12971;DHT22;6550;48.650;8.774;2023-04-21T04:59:54;6.80;99.90
12971;DHT22;6550;48.650;8.774;2023-04-21T05:02:21;7.80;99.90
12971;DHT22;6550;48.650;8.774;2023-04-21T05:04:52;6.80;99.90
12971;DHT22;6550;48.650;8.774;2023-04-21T05:07:19;6.80;99.90
12971;DHT22;6550;48.650;8.774;2023-04-21T05:09:46;6.70;99.90
12971;DHT22;6550;48.650;8.774;2023-04-21T05:12:13;6.70;99.90
12971;DHT22;6550;48.650;8.774;2023-04-21T05:14:39;6.70;99.90
12971;DHT22;6550;48.650;8.774;2023-04-21T05:17:06;6.70;99.90
12971;DHT22;6550;48.650;8.774;2023-04-21T05:19:38;6.80;99.90
12971;DHT22;6550;48.650;8.774;2023-04-21T05:22:05;6.80;99.90
12971;DHT22;6550;48.650;8.774;2023-04-21T05:24:32;6.90;99.90
12971;DHT22;6550;48.650;8.774;2023-04-21T05:26:59;6.90;99.90
12971;DHT22;6550;48.650;8.774;2023-04-21T05:29:28;6.90;99.90
12971;DHT22;6550;48.650;8.774;2023-04-21T05:31:56;7.00;99.90
12971;DHT22;6550;48.650;8.774;2023-04-21T05:34:23;7.00;99.90
12971;DHT22;6550;48.650;8.774;2023-04-21T05:36:50;7.00;99.90
12971;DHT22;6550;48.650;8.774;2023-04-21T05:39:17;7.20;99.90
12971;DHT22;6550;48.650;8.774;2023-04-21T05:41:44;7.30;99.90
12971;DHT22;6550;48.650;8.774;2023-04-21T05:44:11;7.30;99.90
12971;DHT22;6550;48.650;8.774;2023-04-21T05:46:38;8.10;99.90
12971;DHT22;6550;48.650;8.774;2023-04-21T05:49:05;7.50;99.90
12971;DHT22;6550;48.650;8.774;2023-04-21T05:51:32;7.50;99.90
12971;DHT22;6550;48.650;8.774;2023-04-21T05:53:59;7.60;99.90
12971;DHT22;6550;48.650;8.774;2023-04-21T05:56:26;7.70;99.90
12971;DHT22;6550;48.650;8.774;2023-04-21T05:58:52;7.80;99.90
12971;DHT22;6550;48.650;8.774;2023-04-21T06:01:19;8.20;99.90
12971;DHT22;6550;48.650;8.774;2023-04-21T06:03:46;8.00;99.90
12971;DHT22;6550;48.650;8.774;2023-04-21T06:06:16;8.00;99.90
12971;DHT22;6550;48.650;8.774;2023-04-21T06:08:43;7.80;99.90
12971;DHT22;6550;48.650;8.774;2023-04-21T06:11:10;7.90;99.90
12971;DHT22;6550;48.650;8.774;2023-04-21T06:13:36;8.40;99.90
12971;DHT22;6550;48.650;8.774;2023-04-21T06:16:06;8.00;99.90
12971;DHT22;6550;48.650;8.774;2023-04-21T06:18:33;8.10;99.90
12971;DHT22;6550;48.650;8.774;2023-04-21T06:21:23;8.10;99.90
12971;DHT22;6550;48.650;8.774;2023-04-21T06:23:50;8.20;99.90
12971;DHT22;6550;48.650;8.774;2023-04-21T06:26:17;8.40;99.90
12971;DHT22;6550;48.650;8.774;2023-04-21T06:28:44;8.70;99.90
12971;DHT22;6550;48.650;8.774;2023-04-21T06:31:11;8.40;99.90
12971;DHT22;6550;48.650;8.774;2023-04-21T06:33:41;8.60;99.90
12971;DHT22;6550;48.650;8.774;2023-04-21T06:36:07;8.80;99.90
12971;DHT22;6550;48.650;8.774;2023-04-21T06:38:34;8.90;99.90
12971;DHT22;6550;48.650;8.774;2023-04-21T06:41:01;9.50;99.90
12971;DHT22;6550;48.650;8.774;2023-04-21T06:43:30;9.90;99.90
12971;DHT22;6550;48.650;8.774;2023-04-21T06:45:56;10.20;99.90
12971;DHT22;6550;48.650;8.774;2023-04-21T06:48:23;10.10;99.90
12971;DHT22;6550;48.650;8.774;2023-04-21T06:50:50;9.70;99.90
12971;DHT22;6550;48.650;8.774;2023-04-21T06:53:16;9.40;99.90
12971;DHT22;6550;48.650;8.774;2023-04-21T06:55:43;9.20;99.90
12971;DHT22;6550;48.650;8.774;2023-04-21T06:58:13;9.10;99.90
12971;DHT22;6550;48.650;8.774;2023-04-21T07:00:39;9.30;99.90
12971;DHT22;6550;48.650;8.774;2023-04-21T07:03:06;9.50;99.90
12971;DHT22;6550;48.650;8.774;2023-04-21T07:05:33;9.70;99.90
12971;DHT22;6550;48.650;8.774;2023-04-21T07:08:03;9.90;99.90
12971;DHT22;6550;48.650;8.774;2023-04-21T07:10:30;10.10;99.90
12971;DHT22;6550;48.650;8.774;2023-04-21T07:12:57;10.10;99.90
12971;DHT22;6550;48.650;8.774;2023-04-21T07:15:24;10.30;99.90
12971;DHT22;6550;48.650;8.774;2023-04-21T07:17:53;10.70;99.90
12971;DHT22;6550;48.650;8.774;2023-04-21T07:20:20;10.70;99.90
12971;DHT22;6550;48.650;8.774;2023-04-21T07:25:14;11.40;99.90
12971;DHT22;6550;48.650;8.774;2023-04-21T07:27:44;12.10;99.90
12971;DHT22;6550;48.650;8.774;2023-04-21T07:30:11;12.20;99.90
12971;DHT22;6550;48.650;8.774;2023-04-21T07:32:40;12.30;99.90
12971;DHT22;6550;48.650;8.774;2023-04-21T07:35:07;12.50;99.90
12971;DHT22;6550;48.650;8.774;2023-04-21T07:37:37;12.80;99.90
12971;DHT22;6550;48.650;8.774;2023-04-21T07:40:07;13.50;99.90
12971;DHT22;6550;48.650;8.774;2023-04-21T07:42:34;13.60;99.90
12971;DHT22;6550;48.650;8.774;2023-04-21T07:45:02;14.60;99.90
12971;DHT22;6550;48.650;8.774;2023-04-21T07:47:31;13.50;99.90
12971;DHT22;6550;48.650;8.774;2023-04-21T07:52:25;14.10;99.90
12971;DHT22;6550;48.650;8.774;2023-04-21T07:54:52;14.40;99.90
12971;DHT22;6550;48.650;8.774;2023-04-21T07:57:19;14.60;99.70
12971;DHT22;6550;48.650;8.774;2023-04-21T07:59:46;15.30;99.90
12971;DHT22;6550;48.650;8.774;2023-04-21T08:02:13;15.20;98.30
12971;DHT22;6550;48.650;8.774;2023-04-21T08:04:40;15.50;99.90
12971;DHT22;6550;48.650;8.774;2023-04-21T08:07:07;15.90;98.40
12971;DHT22;6550;48.650;8.774;2023-04-21T08:09:35;15.90;97.60
12971;DHT22;6550;48.650;8.774;2023-04-21T08:12:04;16.10;96.80
12971;DHT22;6550;48.650;8.774;2023-04-21T08:14:31;16.40;96.70
12971;DHT22;6550;48.650;8.774;2023-04-21T08:16:59;16.70;96.40
12971;DHT22;6550;48.650;8.774;2023-04-21T08:19:26;16.80;96.10
12971;DHT22;6550;48.650;8.774;2023-04-21T08:21:55;17.10;94.70
12971;DHT22;6550;48.650;8.774;2023-04-21T08:24:23;17.30;94.30
12971;DHT22;6550;48.650;8.774;2023-04-21T08:26:50;17.50;93.80
12971;DHT22;6550;48.650;8.774;2023-04-21T08:29:19;17.60;92.90
12971;DHT22;6550;48.650;8.774;2023-04-21T08:31:46;18.30;92.80
12971;DHT22;6550;48.650;8.774;2023-04-21T08:34:13;17.90;92.30
12971;DHT22;6550;48.650;8.774;2023-04-21T08:39:08;18.30;91.50
12971;DHT22;6550;48.650;8.774;2023-04-21T08:41:38;18.50;91.70
12971;DHT22;6550;48.650;8.774;2023-04-21T08:44:09;18.60;90.70
12971;DHT22;6550;48.650;8.774;2023-04-21T08:46:38;18.80;90.00
12971;DHT22;6550;48.650;8.774;2023-04-21T08:49:08;19.00;90.20
12971;DHT22;6550;48.650;8.774;2023-04-21T08:56:30;19.60;88.10
12971;DHT22;6550;48.650;8.774;2023-04-21T08:58:57;19.50;85.10
12971;DHT22;6550;48.650;8.774;2023-04-21T09:01:23;19.70;85.50
12971;DHT22;6550;48.650;8.774;2023-04-21T09:03:50;19.80;85.90
12971;DHT22;6550;48.650;8.774;2023-04-21T09:08:53;20.40;85.00
12971;DHT22;6550;48.650;8.774;2023-04-21T09:11:22;20.60;84.40
12971;DHT22;6550;48.650;8.774;2023-04-21T09:13:49;20.80;83.40
12971;DHT22;6550;48.650;8.774;2023-04-21T09:16:18;21.00;82.70
12971;DHT22;6550;48.650;8.774;2023-04-21T09:18:49;21.00;82.20
12971;DHT22;6550;48.650;8.774;2023-04-21T09:21:17;21.20;81.50
12971;DHT22;6550;48.650;8.774;2023-04-21T09:23:47;21.20;79.60
12971;DHT22;6550;48.650;8.774;2023-04-21T09:26:15;21.20;79.80
12971;DHT22;6550;48.650;8.774;2023-04-21T09:28:46;21.50;80.00
12971;DHT22;6550;48.650;8.774;2023-04-21T09:31:20;21.60;79.20
12971;DHT22;6550;48.650;8.774;2023-04-21T09:33:50;21.70;79.80
12971;DHT22;6550;48.650;8.774;2023-04-21T09:36:22;21.90;78.20
12971;DHT22;6550;48.650;8.774;2023-04-21T09:41:39;22.10;77.70
12971;DHT22;6550;48.650;8.774;2023-04-21T09:44:09;22.20;76.90
12971;DHT22;6550;48.650;8.774;2023-04-21T09:46:35;22.00;76.30
12971;DHT22;6550;48.650;8.774;2023-04-21T09:49:05;21.90;75.70
12971;DHT22;6550;48.650;8.774;2023-04-21T09:51:34;21.80;76.80
12971;DHT22;6550;48.650;8.774;2023-04-21T09:54:16;22.10;77.10
12971;DHT22;6550;48.650;8.774;2023-04-21T09:57:00;22.50;76.30
12971;DHT22;6550;48.650;8.774;2023-04-21T09:59:39;22.70;76.10
12971;DHT22;6550;48.650;8.774;2023-04-21T10:02:11;22.80;76.40
12971;DHT22;6550;48.650;8.774;2023-04-21T10:04:40;22.90;76.00
12971;DHT22;6550;48.650;8.774;2023-04-21T10:07:09;23.00;73.70
12971;DHT22;6550;48.650;8.774;2023-04-21T10:09:44;23.20;74.70
12971;DHT22;6550;48.650;8.774;2023-04-21T10:12:12;23.40;75.20
12971;DHT22;6550;48.650;8.774;2023-04-21T10:14:39;23.50;74.70
12971;DHT22;6550;48.650;8.774;2023-04-21T10:17:10;23.40;73.60
12971;DHT22;6550;48.650;8.774;2023-04-21T10:19:47;23.50;73.60
12971;DHT22;6550;48.650;8.774;2023-04-21T10:22:14;23.60;72.90
12971;DHT22;6550;48.650;8.774;2023-04-21T10:24:54;23.80;73.60
12971;DHT22;6550;48.650;8.774;2023-04-21T10:27:39;23.90;72.20
12971;DHT22;6550;48.650;8.774;2023-04-21T10:33:01;24.00;71.70
12971;DHT22;6550;48.650;8.774;2023-04-21T10:35:57;23.90;71.00
12971;DHT22;6550;48.650;8.774;2023-04-21T10:38:41;24.00;71.90
12971;DHT22;6550;48.650;8.774;2023-04-21T10:41:27;23.80;71.50
12971;DHT22;6550;48.650;8.774;2023-04-21T10:43:58;24.00;71.80
12971;DHT22;6550;48.650;8.774;2023-04-21T10:49:11;24.30;70.00
12971;DHT22;6550;48.650;8.774;2023-04-21T10:54:24;24.50;70.00
12971;DHT22;6550;48.650;8.774;2023-04-21T10:56:56;24.50;68.20
12971;DHT22;6550;48.650;8.774;2023-04-21T10:59:24;24.60;70.10
12971;DHT22;6550;48.650;8.774;2023-04-21T11:04:20;25.00;68.20
12971;DHT22;6550;48.650;8.774;2023-04-21T11:07:11;25.10;69.80
12971;DHT22;6550;48.650;8.774;2023-04-21T11:09:40;25.30;69.60
12971;DHT22;6550;48.650;8.774;2023-04-21T11:12:12;25.30;69.30
12971;DHT22;6550;48.650;8.774;2023-04-21T11:14:42;25.60;68.40
12971;DHT22;6550;48.650;8.774;2023-04-21T11:17:13;25.50;68.90
12971;DHT22;6550;48.650;8.774;2023-04-21T11:19:54;25.60;69.10
12971;DHT22;6550;48.650;8.774;2023-04-21T11:22:25;25.30;69.20
12971;DHT22;6550;48.650;8.774;2023-04-21T11:24:56;25.40;69.50
12971;DHT22;6550;48.650;8.774;2023-04-21T11:27:25;25.50;69.30
12971;DHT22;6550;48.650;8.774;2023-04-21T11:29:52;25.60;69.40
12971;DHT22;6550;48.650;8.774;2023-04-21T11:32:19;25.70;66.90
12971;DHT22;6550;48.650;8.774;2023-04-21T11:34:46;25.60;67.80
12971;DHT22;6550;48.650;8.774;2023-04-21T11:37:20;25.70;68.10
12971;DHT22;6550;48.650;8.774;2023-04-21T11:39:47;25.90;67.60
12971;DHT22;6550;48.650;8.774;2023-04-21T11:42:22;25.80;65.60
12971;DHT22;6550;48.650;8.774;2023-04-21T11:44:53;25.80;66.70
12971;DHT22;6550;48.650;8.774;2023-04-21T11:47:27;25.90;65.30
12971;DHT22;6550;48.650;8.774;2023-04-21T11:49:56;25.50;63.90
12971;DHT22;6550;48.650;8.774;2023-04-21T11:52:28;25.50;66.00
12971;DHT22;6550;48.650;8.774;2023-04-21T11:55:00;25.90;65.00
12971;DHT22;6550;48.650;8.774;2023-04-21T11:57:28;25.90;65.60
12971;DHT22;6550;48.650;8.774;2023-04-21T12:00:03;26.20;66.30
12971;DHT22;6550;48.650;8.774;2023-04-21T12:05:01;26.50;66.20
12971;DHT22;6550;48.650;8.774;2023-04-21T12:07:45;26.70;66.30
12971;DHT22;6550;48.650;8.774;2023-04-21T12:10:20;26.70;65.10
12971;DHT22;6550;48.650;8.774;2023-04-21T12:12:49;26.70;65.60
12971;DHT22;6550;48.650;8.774;2023-04-21T12:15:19;26.70;64.40
12971;DHT22;6550;48.650;8.774;2023-04-21T12:17:49;26.70;64.70
12971;DHT22;6550;48.650;8.774;2023-04-21T12:20:23;26.80;64.70
12971;DHT22;6550;48.650;8.774;2023-04-21T12:22:50;26.90;64.20
12971;DHT22;6550;48.650;8.774;2023-04-21T12:28:07;27.00;64.70
12971;DHT22;6550;48.650;8.774;2023-04-21T12:30:34;27.10;64.60
12971;DHT22;6550;48.650;8.774;2023-04-21T12:33:07;27.20;63.30
12971;DHT22;6550;48.650;8.774;2023-04-21T12:35:34;27.20;62.50
12971;DHT22;6550;48.650;8.774;2023-04-21T12:38:01;27.20;63.20
12971;DHT22;6550;48.650;8.774;2023-04-21T12:40:32;27.30;63.40
12971;DHT22;6550;48.650;8.774;2023-04-21T12:43:01;27.30;63.90
12971;DHT22;6550;48.650;8.774;2023-04-21T12:45:28;27.40;63.70
12971;DHT22;6550;48.650;8.774;2023-04-21T12:48:00;27.50;62.90
12971;DHT22;6550;48.650;8.774;2023-04-21T12:50:30;27.40;62.60
12971;DHT22;6550;48.650;8.774;2023-04-21T12:52:58;27.50;60.80
12971;DHT22;6550;48.650;8.774;2023-04-21T12:55:24;27.50;61.70
12971;DHT22;6550;48.650;8.774;2023-04-21T12:57:51;27.10;60.80
12971;DHT22;6550;48.650;8.774;2023-04-21T13:02:45;27.00;62.70
12971;DHT22;6550;48.650;8.774;2023-04-21T13:05:12;27.20;61.90
12971;DHT22;6550;48.650;8.774;2023-04-21T13:07:42;27.10;61.80
12971;DHT22;6550;48.650;8.774;2023-04-21T13:10:12;27.60;62.10
12971;DHT22;6550;48.650;8.774;2023-04-21T13:12:38;28.00;61.90
12971;DHT22;6550;48.650;8.774;2023-04-21T13:15:09;28.10;61.00
12971;DHT22;6550;48.650;8.774;2023-04-21T13:17:36;28.20;61.40
12971;DHT22;6550;48.650;8.774;2023-04-21T13:20:03;28.10;61.20
12971;DHT22;6550;48.650;8.774;2023-04-21T13:22:30;28.10;61.80
12971;DHT22;6550;48.650;8.774;2023-04-21T13:25:02;28.10;62.10
12971;DHT22;6550;48.650;8.774;2023-04-21T13:27:29;28.10;62.70
12971;DHT22;6550;48.650;8.774;2023-04-21T13:29:58;27.40;61.50
12971;DHT22;6550;48.650;8.774;2023-04-21T13:32:25;27.10;60.90
12971;DHT22;6550;48.650;8.774;2023-04-21T13:34:52;26.80;60.90
12971;DHT22;6550;48.650;8.774;2023-04-21T13:37:22;26.80;61.50
12971;DHT22;6550;48.650;8.774;2023-04-21T13:39:49;26.20;60.80
12971;DHT22;6550;48.650;8.774;2023-04-21T13:42:18;26.40;61.30
12971;DHT22;6550;48.650;8.774;2023-04-21T13:44:44;25.50;61.90
12971;DHT22;6550;48.650;8.774;2023-04-21T13:49:39;25.40;61.40
12971;DHT22;6550;48.650;8.774;2023-04-21T13:52:05;25.30;60.80
12971;DHT22;6550;48.650;8.774;2023-04-21T13:54:34;25.20;61.50
12971;DHT22;6550;48.650;8.774;2023-04-21T13:57:03;25.10;62.10
12971;DHT22;6550;48.650;8.774;2023-04-21T13:59:30;25.70;64.40
12971;DHT22;6550;48.650;8.774;2023-04-21T14:02:00;25.80;63.80
12971;DHT22;6550;48.650;8.774;2023-04-21T14:04:27;25.90;62.30
12971;DHT22;6550;48.650;8.774;2023-04-21T14:06:56;26.00;62.10
12971;DHT22;6550;48.650;8.774;2023-04-21T14:14:22;26.00;62.10
12971;DHT22;6550;48.650;8.774;2023-04-21T14:17:04;26.00;61.90
12971;DHT22;6550;48.650;8.774;2023-04-21T14:19:30;26.00;63.00
12971;DHT22;6550;48.650;8.774;2023-04-21T14:22:01;25.80;62.80
12971;DHT22;6550;48.650;8.774;2023-04-21T14:26:55;25.80;62.30
12971;DHT22;6550;48.650;8.774;2023-04-21T14:29:23;25.80;62.70
12971;DHT22;6550;48.650;8.774;2023-04-21T14:34:22;25.70;63.10
12971;DHT22;6550;48.650;8.774;2023-04-21T14:36:50;25.60;63.60
12971;DHT22;6550;48.650;8.774;2023-04-21T14:39:19;25.50;62.10
12971;DHT22;6550;48.650;8.774;2023-04-21T14:41:48;25.20;63.00
12971;DHT22;6550;48.650;8.774;2023-04-21T14:44:15;25.20;63.90
12971;DHT22;6550;48.650;8.774;2023-04-21T14:46:44;25.20;64.00
12971;DHT22;6550;48.650;8.774;2023-04-21T14:49:26;25.10;62.90
12971;DHT22;6550;48.650;8.774;2023-04-21T14:51:53;25.10;62.30
12971;DHT22;6550;48.650;8.774;2023-04-21T14:59:20;24.80;63.20
12971;DHT22;6550;48.650;8.774;2023-04-21T15:01:48;24.50;63.50
12971;DHT22;6550;48.650;8.774;2023-04-21T15:04:17;24.10;64.80
12971;DHT22;6550;48.650;8.774;2023-04-21T15:06:47;23.60;65.10
12971;DHT22;6550;48.650;8.774;2023-04-21T15:09:14;23.30;66.50
12971;DHT22;6550;48.650;8.774;2023-04-21T15:11:41;23.10;67.30
12971;DHT22;6550;48.650;8.774;2023-04-21T15:14:08;22.80;67.50
12971;DHT22;6550;48.650;8.774;2023-04-21T15:16:34;22.70;68.20
12971;DHT22;6550;48.650;8.774;2023-04-21T15:19:02;22.50;68.90
12971;DHT22;6550;48.650;8.774;2023-04-21T15:21:34;22.50;69.10
12971;DHT22;6550;48.650;8.774;2023-04-21T15:24:03;22.30;69.50
12971;DHT22;6550;48.650;8.774;2023-04-21T15:26:34;22.10;68.60
12971;DHT22;6550;48.650;8.774;2023-04-21T15:29:03;21.90;69.50
12971;DHT22;6550;48.650;8.774;2023-04-21T15:36:30;21.40;70.80
12971;DHT22;6550;48.650;8.774;2023-04-21T15:38:57;21.30;71.10
12971;DHT22;6550;48.650;8.774;2023-04-21T15:41:27;21.20;70.60
12971;DHT22;6550;48.650;8.774;2023-04-21T15:43:57;21.20;71.50
12971;DHT22;6550;48.650;8.774;2023-04-21T15:48:58;21.20;72.10
12971;DHT22;6550;48.650;8.774;2023-04-21T15:51:24;21.00;72.00
12971;DHT22;6550;48.650;8.774;2023-04-21T15:53:54;21.00;72.40
12971;DHT22;6550;48.650;8.774;2023-04-21T15:58:51;20.80;73.20
12971;DHT22;6550;48.650;8.774;2023-04-21T16:03:50;20.60;73.40
12971;DHT22;6550;48.650;8.774;2023-04-21T16:06:17;20.60;73.70
12971;DHT22;6550;48.650;8.774;2023-04-21T16:11:16;20.60;74.80
12971;DHT22;6550;48.650;8.774;2023-04-21T16:13:42;20.50;74.80
12971;DHT22;6550;48.650;8.774;2023-04-21T16:16:12;20.50;74.10
12971;DHT22;6550;48.650;8.774;2023-04-21T16:18:38;20.40;74.20
12971;DHT22;6550;48.650;8.774;2023-04-21T16:21:08;20.20;74.70
12971;DHT22;6550;48.650;8.774;2023-04-21T16:26:03;19.90;76.80
12971;DHT22;6550;48.650;8.774;2023-04-21T16:28:31;19.70;77.70
12971;DHT22;6550;48.650;8.774;2023-04-21T16:31:00;19.30;80.10
12971;DHT22;6550;48.650;8.774;2023-04-21T16:33:27;19.10;82.00
12971;DHT22;6550;48.650;8.774;2023-04-21T16:38:24;18.50;84.20
12971;DHT22;6550;48.650;8.774;2023-04-21T16:40:54;18.20;85.50
12971;DHT22;6550;48.650;8.774;2023-04-21T16:45:50;17.90;89.30
12971;DHT22;6550;48.650;8.774;2023-04-21T16:50:49;17.90;91.50
12971;DHT22;6550;48.650;8.774;2023-04-21T16:53:18;17.90;92.30
12971;DHT22;6550;48.650;8.774;2023-04-21T16:55:44;18.00;93.10
12971;DHT22;6550;48.650;8.774;2023-04-21T16:58:13;17.90;94.40
12971;DHT22;6550;48.650;8.774;2023-04-21T17:00:42;17.90;95.20
12971;DHT22;6550;48.650;8.774;2023-04-21T17:03:12;17.80;96.10
12971;DHT22;6550;48.650;8.774;2023-04-21T17:05:39;17.90;96.30
12971;DHT22;6550;48.650;8.774;2023-04-21T17:10:38;17.90;97.50
12971;DHT22;6550;48.650;8.774;2023-04-21T17:13:04;17.90;97.60
12971;DHT22;6550;48.650;8.774;2023-04-21T17:15:35;17.90;98.10
12971;DHT22;6550;48.650;8.774;2023-04-21T17:18:04;17.70;97.90
12971;DHT22;6550;48.650;8.774;2023-04-21T17:20:36;17.70;98.20
12971;DHT22;6550;48.650;8.774;2023-04-21T17:23:02;17.60;98.70